createdAt,value
2017-10-23T00:00:15.136Z,82.00
2017-10-23T00:02:42.624Z,81.90
2017-10-23T00:05:10.119Z,81.80
2017-10-23T00:07:37.611Z,81.90
2017-10-23T00:10:05.088Z,81.90
2017-10-23T00:12:33.356Z,81.80
2017-10-23T00:15:00.837Z,81.60
2017-10-23T00:17:28.348Z,81.60
2017-10-23T00:19:55.840Z,81.20
2017-10-23T00:22:24.821Z,81.00
2017-10-23T00:24:52.316Z,81.00
2017-10-23T00:27:19.796Z,81.00
2017-10-23T00:29:47.292Z,81.20
2017-10-23T00:32:14.763Z,81.10
2017-10-23T00:34:42.245Z,80.90
2017-10-23T00:37:09.740Z,80.90
2017-10-23T00:39:37.220Z,80.90
2017-10-23T00:42:04.724Z,80.70
2017-10-23T00:44:32.199Z,81.40
2017-10-23T00:46:59.732Z,80.30
2017-10-23T00:49:27.973Z,80.50
2017-10-23T00:51:55.498Z,80.40
2017-10-23T00:54:22.992Z,80.80
2017-10-23T00:56:51.248Z,80.00
2017-10-23T00:59:18.731Z,79.90
2017-10-23T01:01:46.228Z,80.10
2017-10-23T01:04:13.715Z,80.10
2017-10-23T01:06:41.199Z,80.00
2017-10-23T01:09:08.675Z,80.10
2017-10-23T01:11:36.172Z,80.40
2017-10-23T01:14:03.647Z,79.80
2017-10-23T01:16:31.148Z,79.60
2017-10-23T01:18:58.623Z,79.70
2017-10-23T01:21:26.876Z,79.50
2017-10-23T01:23:54.372Z,79.40
2017-10-23T01:26:21.856Z,79.60
2017-10-23T01:28:49.356Z,79.20
2017-10-23T01:31:16.832Z,79.40
2017-10-23T01:33:45.104Z,79.30
2017-10-23T01:36:13.339Z,79.40
2017-10-23T01:38:40.842Z,79.30
2017-10-23T01:41:09.099Z,79.60
2017-10-23T01:43:36.602Z,79.50
2017-10-23T01:46:04.099Z,79.80
2017-10-23T01:48:31.599Z,79.70
2017-10-23T01:50:59.110Z,79.80
2017-10-23T01:53:26.587Z,79.90
2017-10-23T01:55:54.079Z,80.00
2017-10-23T01:58:21.570Z,80.00
2017-10-23T02:00:49.047Z,80.20
2017-10-23T02:03:16.536Z,80.20
2017-10-23T02:05:44.785Z,80.40
2017-10-23T02:08:12.273Z,80.40
2017-10-23T02:10:40.517Z,80.70
2017-10-23T02:13:08.007Z,80.60
2017-10-23T02:15:36.261Z,80.90
2017-10-23T02:18:03.740Z,80.80
2017-10-23T02:20:31.987Z,80.90
2017-10-23T02:22:59.464Z,80.90
2017-10-23T02:25:26.957Z,81.10
2017-10-23T02:27:55.196Z,81.40
2017-10-23T02:30:22.672Z,81.40
2017-10-23T02:32:50.937Z,81.80
2017-10-23T02:35:18.417Z,81.70
2017-10-23T02:37:45.923Z,81.40
2017-10-23T02:40:13.408Z,82.20
2017-10-23T02:42:40.897Z,82.30
2017-10-23T02:45:08.371Z,82.20
2017-10-23T02:47:35.860Z,82.40
2017-10-23T02:50:03.355Z,83.10
2017-10-23T02:52:31.604Z,82.20
2017-10-23T02:54:59.128Z,82.20
2017-10-23T02:57:26.600Z,82.40
2017-10-23T02:59:54.108Z,82.30
2017-10-23T03:02:22.343Z,82.50
2017-10-23T03:04:49.815Z,82.40
2017-10-23T03:07:18.210Z,82.60
2017-10-23T03:09:45.692Z,82.60
2017-10-23T03:12:13.188Z,83.10
2017-10-23T03:14:40.669Z,82.70
2017-10-23T03:17:08.171Z,82.60
2017-10-23T03:19:35.644Z,82.60
2017-10-23T03:22:03.126Z,82.50
2017-10-23T03:24:30.648Z,82.50
2017-10-23T03:26:58.123Z,82.60
2017-10-23T03:29:25.724Z,82.60
2017-10-23T03:31:53.239Z,82.50
2017-10-23T03:34:20.746Z,82.40
2017-10-23T03:36:48.224Z,82.50
2017-10-23T03:39:16.493Z,82.70
2017-10-23T03:41:44.747Z,82.80
2017-10-23T03:44:12.227Z,82.70
2017-10-23T03:46:40.502Z,82.80
2017-10-23T03:49:08.744Z,83.00
2017-10-23T03:51:36.233Z,82.50
2017-10-23T03:54:03.703Z,82.70
2017-10-23T03:56:31.947Z,82.80
2017-10-23T03:58:59.452Z,82.80
2017-10-23T04:01:26.934Z,82.70
2017-10-23T04:03:54.435Z,82.50
2017-10-23T04:06:21.915Z,82.60
2017-10-23T04:08:50.176Z,82.80
2017-10-23T04:11:17.651Z,82.80
2017-10-23T04:13:45.891Z,82.80
2017-10-23T04:16:13.380Z,82.70
2017-10-23T04:18:41.615Z,82.60
2017-10-23T04:21:09.116Z,82.50
2017-10-23T04:23:37.360Z,82.50
2017-10-23T04:26:04.860Z,82.40
2017-10-23T04:28:32.352Z,82.50
2017-10-23T04:30:59.833Z,82.60
2017-10-23T04:33:27.337Z,82.60
2017-10-23T04:35:55.571Z,82.40
2017-10-23T04:38:23.059Z,82.30
2017-10-23T04:40:51.328Z,82.50
2017-10-23T04:43:19.596Z,82.60
2017-10-23T04:45:47.072Z,82.30
2017-10-23T04:48:15.320Z,82.30
2017-10-23T04:50:42.815Z,82.30
2017-10-23T04:53:11.072Z,82.30
2017-10-23T04:55:39.339Z,82.20
2017-10-23T04:58:06.821Z,82.00
2017-10-23T05:00:35.088Z,82.10
2017-10-23T05:03:03.339Z,82.30
2017-10-23T05:05:30.928Z,82.20
2017-10-23T05:07:58.460Z,82.30
2017-10-23T05:10:25.943Z,82.30
2017-10-23T05:12:53.463Z,82.40
2017-10-23T05:15:20.944Z,82.30
2017-10-23T05:17:48.439Z,82.30
2017-10-23T05:20:15.923Z,82.40
2017-10-23T05:22:43.401Z,82.40
2017-10-23T05:25:10.884Z,82.30
2017-10-23T05:27:38.358Z,82.30
2017-10-23T05:30:06.632Z,82.40
2017-10-23T05:32:34.872Z,82.50
2017-10-23T05:35:02.368Z,82.50
2017-10-23T05:37:30.608Z,82.60
2017-10-23T05:39:58.088Z,82.60
2017-10-23T05:42:25.647Z,82.80
2017-10-23T05:44:53.113Z,82.80
2017-10-23T05:47:20.636Z,82.80
2017-10-23T05:49:48.115Z,83.10
2017-10-23T05:52:15.596Z,83.50
2017-10-23T05:54:43.857Z,84.00
2017-10-23T05:57:11.382Z,84.00
2017-10-23T05:59:38.876Z,84.00
2017-10-23T06:02:06.344Z,84.30
2017-10-23T06:04:33.899Z,84.50
2017-10-23T06:07:02.140Z,84.60
2017-10-23T06:09:29.624Z,84.60
2017-10-23T06:11:57.117Z,84.70
2017-10-23T06:14:24.608Z,84.90
2017-10-23T06:16:52.091Z,85.10
2017-10-23T06:19:19.563Z,85.30
2017-10-23T06:21:47.828Z,85.60
2017-10-23T06:24:15.308Z,85.60
2017-10-23T06:26:43.563Z,85.90
2017-10-23T06:29:11.060Z,85.90
2017-10-23T06:31:38.556Z,85.80
2017-10-23T06:34:06.041Z,85.80
2017-10-23T06:36:33.521Z,85.90
2017-10-23T06:39:01.033Z,86.00
2017-10-23T06:41:28.504Z,86.10
2017-10-23T06:43:55.987Z,86.20
2017-10-23T06:46:24.245Z,86.10
2017-10-23T06:48:52.549Z,86.20
2017-10-23T13:14:03.955Z,76.80
2017-10-23T13:16:32.224Z,76.40
2017-10-23T13:18:59.694Z,76.20
2017-10-23T13:21:27.947Z,75.80
2017-10-23T13:23:55.415Z,75.70
2017-10-23T13:26:22.906Z,75.60
2017-10-23T13:28:50.396Z,75.80
2017-10-23T13:31:17.881Z,75.10
2017-10-23T13:33:45.393Z,75.20
2017-10-23T13:36:12.876Z,75.30
2017-10-23T13:38:40.379Z,75.10
2017-10-23T13:41:08.631Z,75.10
2017-10-23T13:43:36.108Z,75.00
2017-10-23T13:46:04.392Z,74.90
2017-10-23T13:48:32.658Z,74.70
2017-10-23T13:51:00.926Z,75.20
2017-10-23T13:53:28.420Z,74.50
2017-10-23T13:55:55.905Z,74.80
2017-10-23T13:58:23.396Z,74.70
2017-10-23T14:00:51.631Z,71.10
2017-10-23T14:03:19.142Z,71.00
2017-10-23T14:05:46.620Z,70.40
2017-10-23T14:08:14.900Z,70.40
2017-10-23T14:10:43.146Z,70.70
2017-10-23T14:13:10.624Z,70.70
2017-10-23T14:15:38.915Z,72.00
2017-10-23T14:18:06.404Z,72.00
2017-10-23T14:20:33.890Z,72.60
2017-10-23T14:23:01.411Z,72.90
2017-10-23T14:25:28.884Z,73.10
2017-10-23T14:27:56.392Z,73.50
2017-10-23T14:30:24.635Z,74.00
2017-10-23T14:32:52.122Z,73.90
2017-10-23T14:35:20.375Z,74.50
2017-10-23T14:37:47.871Z,74.40
2017-10-23T14:40:16.131Z,74.90
2017-10-23T14:42:44.393Z,75.50
2017-10-23T14:45:11.867Z,74.80
2017-10-23T14:47:40.142Z,75.10
2017-10-23T14:50:08.383Z,75.20
2017-10-23T14:52:35.895Z,75.20
2017-10-23T14:55:03.381Z,75.20
2017-10-23T14:57:30.859Z,75.10
2017-10-23T14:59:58.351Z,75.40
2017-10-23T15:02:26.594Z,75.40
2017-10-23T15:04:54.150Z,75.40
2017-10-23T15:07:21.640Z,75.40
2017-10-23T15:09:49.910Z,75.90
2017-10-23T15:12:18.912Z,75.90
2017-10-23T15:14:46.413Z,76.00
2017-10-23T15:17:13.911Z,77.00
2017-10-23T15:19:41.391Z,76.10
2017-10-23T15:22:09.671Z,77.30
2017-10-23T15:24:37.928Z,76.80
2017-10-23T15:27:05.421Z,77.40
2017-10-23T15:29:32.923Z,77.10
2017-10-23T15:32:00.404Z,77.30
2017-10-23T15:34:27.897Z,77.60
2017-10-23T15:36:55.474Z,78.00
2017-10-23T15:39:22.974Z,78.20
2017-10-23T15:41:50.476Z,78.70
2017-10-23T15:44:17.972Z,78.80
2017-10-23T15:46:45.457Z,79.20
2017-10-23T15:49:12.940Z,79.20
2017-10-23T15:51:41.183Z,79.40
2017-10-23T15:54:08.713Z,79.40
2017-10-23T15:56:36.262Z,79.50
2017-10-23T15:59:03.750Z,79.60
2017-10-23T16:01:31.278Z,79.80
2017-10-23T16:03:58.771Z,80.10
2017-10-23T16:06:26.307Z,80.10
2017-10-23T16:08:53.787Z,80.30
2017-10-23T16:11:21.287Z,80.50
2017-10-23T16:13:49.600Z,80.90
2017-10-23T16:16:17.108Z,80.70
2017-10-23T16:18:45.381Z,81.20
2017-10-23T16:21:13.627Z,81.40
2017-10-23T16:23:41.128Z,81.50
2017-10-23T16:26:09.379Z,82.00
2017-10-23T16:28:36.857Z,81.90
2017-10-23T16:31:05.159Z,82.40
2017-10-23T16:33:32.642Z,82.40
2017-10-23T16:36:00.419Z,82.50
2017-10-23T16:38:27.924Z,82.80
2017-10-23T16:40:56.168Z,83.30
2017-10-23T16:43:23.692Z,83.20
2017-10-23T16:45:51.159Z,83.30
2017-10-23T16:48:18.644Z,83.60
2017-10-23T16:50:46.130Z,83.60
2017-10-23T16:53:14.376Z,84.00
2017-10-23T16:55:41.889Z,84.00
2017-10-23T16:58:09.359Z,84.30
2017-10-23T17:00:36.859Z,84.50
2017-10-23T19:21:04.865Z,89.90
2017-10-23T19:23:32.355Z,89.60
2017-10-23T19:26:00.666Z,89.30
2017-10-23T19:28:28.177Z,89.30
2017-10-23T19:30:55.660Z,89.10
2017-10-23T19:33:23.984Z,88.80
2017-10-23T19:35:51.560Z,88.70
2017-10-23T19:38:19.140Z,88.60
2017-10-23T19:40:47.917Z,88.50
2017-10-23T19:43:15.404Z,88.50
2017-10-23T19:45:43.683Z,88.00
2017-10-23T19:48:12.041Z,88.00
2017-10-23T19:50:39.552Z,87.90
2017-10-23T19:53:07.062Z,87.90
2017-10-23T19:55:34.643Z,87.70
2017-10-23T19:58:02.942Z,87.70
2017-10-23T20:00:30.556Z,87.60
2017-10-23T20:02:58.188Z,87.50
2017-10-23T20:05:25.688Z,87.70
2017-10-23T20:07:53.956Z,87.50
2017-10-23T20:10:21.471Z,87.30
2017-10-23T20:12:48.980Z,87.10
2017-10-23T20:15:16.480Z,87.20
2017-10-23T20:17:43.989Z,88.00
2017-10-23T20:20:11.567Z,87.20
2017-10-23T20:22:39.827Z,87.10
2017-10-23T20:25:08.831Z,86.90
2017-10-23T20:27:37.150Z,87.00
2017-10-23T20:30:04.635Z,86.90
2017-10-23T20:32:32.141Z,87.00
2017-10-23T20:35:00.414Z,86.80
2017-10-23T20:37:27.972Z,86.80
2017-10-23T20:39:56.198Z,87.10
2017-10-23T20:42:23.689Z,87.00
2017-10-23T20:44:51.183Z,86.80
2017-10-23T20:47:18.651Z,86.70
2017-10-23T20:49:46.152Z,86.60
2017-10-23T20:52:13.637Z,86.60
2017-10-23T20:54:41.930Z,86.60
2017-10-23T20:57:09.452Z,86.40
2017-10-23T20:59:37.764Z,86.50
2017-10-23T21:02:05.292Z,86.50
2017-10-23T21:04:32.806Z,86.40
2017-10-23T21:07:00.297Z,86.10
2017-10-23T21:09:27.776Z,86.30
2017-10-23T21:11:56.039Z,87.80
2017-10-23T21:14:23.552Z,87.10
2017-10-23T21:16:51.115Z,87.30
2017-10-23T21:19:18.635Z,87.30
2017-10-23T21:21:46.956Z,87.80
2017-10-23T21:24:14.427Z,87.60
2017-10-23T21:26:41.911Z,87.60
2017-10-23T21:29:09.395Z,88.20
2017-10-23T21:31:37.674Z,87.80
2017-10-23T21:34:05.931Z,87.80
2017-10-23T21:36:33.396Z,87.80
2017-10-23T21:39:01.679Z,88.10
2017-10-23T21:41:29.947Z,88.10
2017-10-23T21:43:58.208Z,88.10
2017-10-23T21:46:37.352Z,88.10
2017-10-23T21:49:05.616Z,87.80
2017-10-23T21:51:33.118Z,87.80
2017-10-23T21:54:00.595Z,87.90
2017-10-23T21:56:28.112Z,87.50
2017-10-23T21:58:56.390Z,88.10
2017-10-23T22:01:24.636Z,88.80
2017-10-23T22:03:52.131Z,88.80
2017-10-23T22:06:20.371Z,90.00
2017-10-23T22:08:47.860Z,90.00
2017-10-23T22:11:16.112Z,90.70
2017-10-23T22:13:43.588Z,90.70
2017-10-23T22:16:11.877Z,91.20
2017-10-23T22:18:40.121Z,91.50
2017-10-23T22:21:08.410Z,91.30
2017-10-23T22:23:36.009Z,91.30
2017-10-23T22:26:03.483Z,91.30
2017-10-23T22:28:30.996Z,91.40
2017-10-23T22:30:59.244Z,91.60
2017-10-23T22:33:26.736Z,91.30
2017-10-23T22:35:54.988Z,91.40
2017-10-23T22:38:22.519Z,91.40
2017-10-23T22:40:49.994Z,91.60
2017-10-23T22:43:17.471Z,91.60
2017-10-23T22:45:44.951Z,91.40
2017-10-23T22:48:13.221Z,91.60
2017-10-23T22:50:41.488Z,91.60
2017-10-23T22:53:08.958Z,91.50
2017-10-23T22:55:37.239Z,91.70
2017-10-23T22:58:05.499Z,91.80
2017-10-23T23:00:33.753Z,91.90
2017-10-23T23:03:01.260Z,91.90
2017-10-23T23:05:28.766Z,91.80
2017-10-23T23:07:56.258Z,91.70
2017-10-23T23:10:24.504Z,91.60
2017-10-23T23:12:51.992Z,91.60
2017-10-23T23:15:20.250Z,91.60
2017-10-23T23:17:47.732Z,91.50
2017-10-23T23:20:15.991Z,91.80
2017-10-23T23:22:43.464Z,91.80
2017-10-23T23:25:11.739Z,91.90
2017-10-23T23:27:39.984Z,91.70
2017-10-23T23:30:07.473Z,91.70
2017-10-23T23:32:35.727Z,91.90
2017-10-23T23:35:03.202Z,91.90
2017-10-23T23:37:31.484Z,92.10
2017-10-23T23:39:59.737Z,92.10
2017-10-23T23:42:27.241Z,92.00
2017-10-23T23:44:54.730Z,92.10
2017-10-23T23:47:22.244Z,92.10
2017-10-23T23:49:50.504Z,92.00
2017-10-23T23:52:17.971Z,92.00
2017-10-23T23:54:46.226Z,92.10
2017-10-23T23:57:13.969Z,92.10
2017-10-23T23:59:41.480Z,92.10
